Time;durP1;ratioP1;P1;durP2;ratioP2;P2;SDS_P1;SDS_P2;PMS_P1;PMS_P2;Temp;Humidity;BMP_temperature;BMP_pressure;BME280_temperature;BME280_humidity;BME280_pressure;Samples;Min_cycle;Max_cycle;Signal;HPM_P1;HPM_P2
2023/09/14 00:03:23;;;;;;;;;;;20.50;49.90;;;19.74;51.15;101543.34;12127461;19;19933;-82
2023/09/14 00:07:24;;;;;;;;;;;20.50;49.90;;;19.81;51.34;101552.47;12128659;19;19922;-83
2023/09/14 00:11:26;;;;;;;;;;;20.50;50.00;;;19.75;51.35;101542.38;12124438;19;20916;-83
2023/09/14 00:15:28;;;;;;;;;;;20.40;50.00;;;19.78;50.93;101560.69;12137348;19;19923;-83
2023/09/14 00:19:30;;;;;;;;;;;20.40;50.10;;;19.76;51.09;101551.16;12137458;19;20371;-83
2023/09/14 00:23:31;;;;;;;;;;;20.40;50.10;;;19.71;51.35;101556.84;12137693;19;19922;-83
2023/09/14 00:27:33;;;;;;;;;;;20.40;50.10;;;19.69;51.11;101566.75;12140774;19;19925;-83
2023/09/14 00:31:38;;;;;;;;;;;20.40;50.50;;;19.65;51.25;101565.25;12133834;19;20359;-83
2023/09/14 00:35:40;;;;;;;;;;;20.40;50.10;;;19.62;51.38;101555.75;12138940;19;19929;-83
2023/09/14 00:39:42;;;;;;;;;;;20.30;50.10;;;19.64;51.21;101558.28;12135528;19;20766;-84
2023/09/14 00:43:44;;;;;;;;;;;20.30;50.20;;;19.67;51.25;101579.25;12134581;19;20705;-83
2023/09/14 00:47:52;;;;;;;;;;;20.30;50.10;;;19.60;51.26;101570.06;12139024;19;19951;-83
2023/09/14 00:51:54;;;;;;;;;;;20.30;50.10;;;19.59;51.37;101573.69;12138898;19;19926;-83
2023/09/14 00:55:56;;;;;;;;;;;20.30;50.20;;;19.56;51.29;101577.44;12134922;19;19927;-83
2023/09/14 00:59:59;;;;;;;;;;;20.30;50.20;;;19.52;51.32;101573.34;12134659;19;19915;-83
2023/09/14 01:04:01;;;;;;;;;;;20.30;50.20;;;19.55;51.18;101581.06;12132047;19;20203;-83
2023/09/14 01:08:03;;;;;;;;;;;20.30;50.20;;;19.57;51.27;101591.53;12135233;19;20660;-83
2023/09/14 01:12:08;;;;;;;;;;;20.30;50.20;;;19.53;51.54;101585.63;12134243;19;19925;-83
2023/09/14 01:16:19;;;;;;;;;;;20.30;50.20;;;19.54;51.62;101584.66;12135411;19;19934;-83
2023/09/14 01:20:54;;;;;;;;;;;20.30;50.30;;;19.57;51.43;101595.00;12130662;19;20298;-83
2023/09/14 01:25:15;;;;;;;;;;;20.20;50.20;;;19.55;51.29;101591.66;12129830;19;19934;-83
2023/09/14 01:29:17;;;;;;;;;;;20.20;50.20;;;19.56;51.15;101595.16;12135910;19;19922;-83
2023/09/14 01:33:21;;;;;;;;;;;20.20;50.20;;;19.49;51.42;101592.13;12136939;19;19919;-84
2023/09/14 01:37:23;;;;;;;;;;;20.20;50.20;;;19.51;51.46;101595.50;12137040;19;19931;-84
2023/09/14 01:41:25;;;;;;;;;;;20.20;50.20;;;19.45;51.16;101588.03;12133184;19;19947;-83
2023/09/14 01:45:28;;;;;;;;;;;20.20;50.20;;;19.44;51.64;101591.63;12133856;19;20527;-83
2023/09/14 01:49:30;;;;;;;;;;;20.20;50.20;;;19.49;51.23;101594.78;12132212;19;19923;-83
2023/09/14 01:53:31;;;;;;;;;;;20.20;50.30;;;19.44;51.52;101595.16;12131977;19;20367;-83
2023/09/14 01:57:33;;;;;;;;;;;20.20;50.30;;;19.41;51.49;101582.13;12128538;19;19929;-83
2023/09/14 02:01:35;;;;;;;;;;;20.20;50.20;;;19.49;51.70;101592.13;12128845;19;20731;-83
2023/09/14 02:05:36;;;;;;;;;;;20.20;50.20;;;19.42;51.45;101586.47;12134823;19;20338;-83
2023/09/14 02:09:38;;;;;;;;;;;20.20;50.30;;;19.43;51.54;101597.91;12130334;19;19934;-83
2023/09/14 02:13:40;;;;;;;;;;;20.20;50.30;;;19.39;51.38;101586.72;12132303;19;20005;-84
2023/09/14 02:17:42;;;;;;;;;;;20.20;50.30;;;19.36;51.56;101580.81;12132840;19;20002;-83
2023/09/14 02:21:44;;;;;;;;;;;20.10;50.20;;;19.41;51.53;101602.47;12130839;19;19927;-83
2023/09/14 02:25:46;;;;;;;;;;;20.10;50.20;;;19.32;51.52;101597.91;12133627;19;19919;-83
2023/09/14 02:29:51;;;;;;;;;;;20.10;50.20;;;19.31;51.41;101598.88;12129638;19;19922;-83
2023/09/14 02:33:53;;;;;;;;;;;20.10;50.20;;;19.27;51.77;101595.63;12135246;19;20260;-83
2023/09/14 02:37:54;;;;;;;;;;;20.00;50.20;;;19.29;51.49;101612.25;12130168;19;20294;-83
2023/09/14 02:41:56;;;;;;;;;;;20.00;50.20;;;19.27;51.42;101614.16;12130740;19;20655;-83
2023/09/14 02:45:57;;;;;;;;;;;20.00;50.20;;;19.20;51.44;101610.31;12134871;19;19929;-83
2023/09/14 02:49:59;;;;;;;;;;;20.00;50.20;;;19.17;51.47;101615.81;12129968;19;19926;-83
2023/09/14 02:54:01;;;;;;;;;;;19.90;50.20;;;19.13;51.66;101617.88;12130724;19;20200;-83
2023/09/14 02:58:06;;;;;;;;;;;19.90;50.60;;;19.18;51.51;101630.78;12131075;19;19922;-83
2023/09/14 03:02:08;;;;;;;;;;;19.90;50.60;;;19.10;51.77;101628.72;12128097;19;20459;-83
2023/09/14 03:06:12;;;;;;;;;;;19.90;50.20;;;19.09;51.32;101626.16;12129175;19;19915;-83
2023/09/14 03:10:13;;;;;;;;;;;19.90;50.30;;;19.00;51.76;101612.69;12125976;19;19919;-83
2023/09/14 03:14:15;;;;;;;;;;;19.90;50.30;;;19.06;51.78;101637.00;12129526;19;20628;-83
2023/09/14 03:18:17;;;;;;;;;;;19.80;50.30;;;19.05;51.54;101644.09;12128192;19;19936;-83
2023/09/14 03:22:18;;;;;;;;;;;19.80;50.30;;;19.06;51.58;101650.25;12127071;19;19926;-83
2023/09/14 03:26:23;;;;;;;;;;;19.80;50.20;;;19.03;51.39;101656.59;12128419;19;20251;-83
2023/09/14 03:30:24;;;;;;;;;;;19.70;50.20;;;18.92;51.62;101646.84;12125044;19;20007;-83
2023/09/14 03:34:25;;;;;;;;;;;19.70;50.20;;;18.86;51.47;101639.38;12128063;19;20229;-83
2023/09/14 03:38:28;;;;;;;;;;;19.70;50.20;;;18.84;51.58;101651.03;12125860;19;20653;-83
2023/09/14 03:42:31;;;;;;;;;;;19.60;50.20;;;18.82;51.58;101661.72;12126800;19;20684;-83
2023/09/14 03:46:32;;;;;;;;;;;19.50;50.20;;;18.78;51.54;101654.97;12128618;19;20207;-83
2023/09/14 03:50:34;;;;;;;;;;;19.50;50.20;;;18.75;51.52;101666.63;12134288;19;20448;-83
2023/09/14 03:54:36;;;;;;;;;;;19.50;50.30;;;18.71;51.84;101654.56;12137999;19;19926;-83
2023/09/14 03:58:38;;;;;;;;;;;19.50;50.30;;;18.74;51.75;101666.69;12139659;19;19926;-83
2023/09/14 04:02:41;;;;;;;;;;;19.40;50.30;;;18.68;51.66;101669.81;12138823;19;19922;-83
2023/09/14 04:06:47;;;;;;;;;;;19.40;50.30;;;18.67;51.73;101679.56;12141022;19;20286;-83
2023/09/14 04:10:51;;;;;;;;;;;19.40;50.30;;;18.58;51.54;101685.53;12135651;19;20440;-83
2023/09/14 04:14:52;;;;;;;;;;;19.30;50.20;;;18.50;51.80;101685.25;12141743;19;19923;-83
2023/09/14 04:18:54;;;;;;;;;;;19.30;50.20;;;18.47;51.65;101683.69;12138146;19;19927;-83
2023/09/14 04:22:56;;;;;;;;;;;19.20;50.20;;;18.42;51.45;101691.13;12137948;19;20447;-83
2023/09/14 04:26:58;;;;;;;;;;;19.20;50.20;;;18.31;51.73;101685.75;12141145;19;19958;-83
2023/09/14 04:31:01;;;;;;;;;;;19.10;50.20;;;18.37;51.73;101705.63;12136504;19;19929;-84
2023/09/14 04:35:04;;;;;;;;;;;19.10;50.30;;;18.33;51.84;101712.91;12144193;19;19940;-83
2023/09/14 04:39:06;;;;;;;;;;;19.10;50.30;;;18.31;51.64;101715.69;12141780;19;20297;-83
2023/09/14 04:43:09;;;;;;;;;;;19.00;50.30;;;18.28;51.71;101726.50;12142423;19;19947;-84
2023/09/14 04:47:11;;;;;;;;;;;19.00;50.30;;;18.22;51.82;101716.34;12142905;19;20244;-84
2023/09/14 04:51:14;;;;;;;;;;;18.90;50.30;;;18.22;51.87;101726.91;12147498;19;19950;-84
2023/09/14 04:55:16;;;;;;;;;;;18.90;50.30;;;18.20;51.70;101718.28;12149017;19;19923;-84
2023/09/14 04:59:18;;;;;;;;;;;18.90;50.40;;;18.14;51.92;101719.53;12145423;19;19929;-84
2023/09/14 05:03:20;;;;;;;;;;;18.90;50.40;;;18.12;51.58;101726.75;12145868;19;19929;-84
2023/09/14 05:07:22;;;;;;;;;;;18.90;50.40;;;18.14;52.01;101735.38;12133420;19;19939;-84
2023/09/14 05:11:24;;;;;;;;;;;18.90;50.40;;;18.09;51.74;101736.66;12127135;19;20196;-84
2023/09/14 05:15:26;;;;;;;;;;;18.80;50.30;;;18.09;51.81;101745.47;12134077;19;20220;-84
2023/09/14 05:19:29;;;;;;;;;;;18.80;50.40;;;18.00;51.92;101740.81;12136671;19;20268;-84
2023/09/14 05:23:31;;;;;;;;;;;18.80;50.40;;;18.04;51.97;101760.81;12131637;19;20326;-84
2023/09/14 05:27:38;;;;;;;;;;;18.80;50.40;;;18.03;51.86;101763.53;12139270;19;20852;-84
2023/09/14 05:31:40;;;;;;;;;;;18.70;50.30;;;17.94;51.87;101756.28;12136154;19;20006;-84
2023/09/14 05:35:43;;;;;;;;;;;18.70;50.40;;;17.95;51.97;101768.50;12137845;19;19937;-84
2023/09/14 05:39:46;;;;;;;;;;;18.70;50.50;;;17.97;51.83;101779.84;12136736;19;20667;-84
2023/09/14 05:43:47;;;;;;;;;;;18.70;50.50;;;17.95;51.98;101776.44;12136798;19;19926;-87
2023/09/14 05:47:50;;;;;;;;;;;18.70;50.60;;;17.97;51.90;101771.91;12135377;19;20270;-87
2023/09/14 05:51:53;;;;;;;;;;;18.70;50.60;;;17.92;51.92;101766.94;12133654;19;19926;-87
2023/09/14 05:55:55;;;;;;;;;;;18.70;50.60;;;17.91;51.96;101768.72;12139024;19;20673;-87
2023/09/14 05:59:57;;;;;;;;;;;18.70;50.60;;;18.00;52.18;101787.53;12137897;19;19922;-87
2023/09/14 06:03:59;;;;;;;;;;;18.80;50.60;;;17.93;51.96;101781.84;12145743;19;19915;-87
2023/09/14 06:08:01;;;;;;;;;;;18.80;50.60;;;17.95;51.91;101790.50;12138211;19;19922;-87
2023/09/14 06:12:04;;;;;;;;;;;18.70;50.60;;;17.67;52.10;101751.91;12138895;19;20234;-86
2023/09/14 06:16:06;;;;;;;;;;;18.70;50.50;;;17.89;52.16;101790.94;12140333;19;20464;-86
2023/09/14 06:20:09;;;;;;;;;;;18.70;50.60;;;17.89;52.23;101788.28;12136145;19;19930;-87
2023/09/14 06:24:11;;;;;;;;;;;18.70;50.60;;;17.90;52.23;101798.78;12139080;19;19961;-87
2023/09/14 06:28:13;;;;;;;;;;;18.70;50.60;;;17.90;52.40;101803.19;12138714;19;19927;-86
2023/09/14 06:32:14;;;;;;;;;;;18.70;50.60;;;17.92;52.24;101803.94;12137287;19;19922;-87
2023/09/14 06:36:19;;;;;;;;;;;18.70;50.70;;;17.91;51.99;101805.72;12139349;19;20731;-87
2023/09/14 06:40:20;;;;;;;;;;;18.70;50.70;;;17.96;52.40;101810.72;12132844;19;20708;-87
2023/09/14 06:44:23;;;;;;;;;;;18.80;50.70;;;17.87;52.19;101796.31;12134054;19;20725;-87
2023/09/14 06:48:25;;;;;;;;;;;18.80;50.80;;;18.02;52.12;101815.56;12131260;19;19929;-87
2023/09/14 06:52:26;;;;;;;;;;;18.80;50.80;;;18.03;52.14;101814.59;12136705;19;19965;-86
2023/09/14 06:56:28;;;;;;;;;;;18.80;50.80;;;18.03;52.40;101811.13;12134415;19;20168;-87
2023/09/14 07:00:29;;;;;;;;;;;18.90;50.90;;;18.07;52.50;101813.44;12131041;19;19950;-87
2023/09/14 07:04:33;;;;;;;;;;;18.90;50.80;;;17.97;52.23;101793.88;12131197;19;19927;-87
2023/09/14 07:08:35;;;;;;;;;;;18.90;50.80;;;18.13;52.55;101817.47;12129385;19;20017;-87
2023/09/14 07:12:36;;;;;;;;;;;19.00;50.80;;;18.09;52.16;101810.69;12128792;19;19923;-88
2023/09/14 07:16:38;;;;;;;;;;;19.00;50.80;;;18.04;52.43;101805.75;12141437;19;20691;-87
2023/09/14 07:20:40;;;;;;;;;;;19.00;50.70;;;18.23;52.28;101830.91;12137041;19;20204;-87
2023/09/14 07:24:42;;;;;;;;;;;19.10;50.80;;;18.27;52.50;101825.28;12151993;19;20344;-85
2023/09/14 07:28:44;;;;;;;;;;;19.10;51.30;;;18.33;52.40;101824.00;12159658;19;20544;-83
2023/09/14 07:32:45;;;;;;;;;;;19.20;51.00;;;18.43;52.70;101829.50;12156868;19;19962;-83
2023/09/14 07:36:47;;;;;;;;;;;19.30;51.10;;;18.55;52.62;101840.06;12159731;19;20233;-84
2023/09/14 07:40:48;;;;;;;;;;;19.40;51.10;;;18.66;52.90;101841.06;12158479;19;20011;-84
2023/09/14 07:44:49;;;;;;;;;;;19.60;51.10;;;18.79;52.62;101837.50;12152835;19;19926;-84
2023/09/14 07:48:51;;;;;;;;;;;19.70;50.90;;;18.90;52.85;101846.44;12155279;19;20523;-85
2023/09/14 07:52:53;;;;;;;;;;;19.80;50.90;;;18.99;52.66;101843.13;12160200;19;19955;-84
2023/09/14 07:56:55;;;;;;;;;;;19.90;50.80;;;18.99;53.02;101833.38;12159480;19;19929;-84
2023/09/14 08:00:57;;;;;;;;;;;20.10;50.90;;;19.25;52.71;101851.78;12156737;19;19922;-85
2023/09/14 08:04:58;;;;;;;;;;;20.30;50.90;;;19.32;52.98;101847.72;12155739;19;19945;-83
2023/09/14 08:09:01;;;;;;;;;;;20.40;50.90;;;19.59;52.98;101867.84;12152421;19;19943;-84
2023/09/14 08:13:03;;;;;;;;;;;20.40;50.70;;;19.71;53.20;101874.88;12155836;19;19951;-84
2023/09/14 08:17:05;;;;;;;;;;;20.70;50.70;;;19.81;53.08;101867.91;12158506;19;19919;-84
2023/09/14 08:21:06;;;;;;;;;;;20.80;50.70;;;19.94;53.13;101874.94;12150107;19;19925;-84
2023/09/14 08:25:10;;;;;;;;;;;21.10;50.60;;;20.13;52.86;101874.38;12152436;19;20021;-84
2023/09/14 08:29:12;;;;;;;;;;;21.20;50.70;;;20.27;52.67;101867.03;12155339;19;20266;-84
2023/09/14 08:33:14;;;;;;;;;;;21.30;50.60;;;20.44;53.18;101875.47;12150264;19;20264;-84
2023/09/14 08:37:15;;;;;;;;;;;21.50;50.70;;;20.63;53.00;101878.41;12144628;19;19926;-84
2023/09/14 08:41:26;;;;;;;;;;;21.70;50.20;;;20.68;53.29;101862.94;12143217;19;20024;-84
2023/09/14 08:45:32;;;;;;;;;;;21.80;50.20;;;20.90;53.00;101880.66;12138786;19;19934;-84
2023/09/14 08:49:35;;;;;;;;;;;22.00;50.00;;;20.95;52.76;101875.84;12142160;19;19923;-83
2023/09/14 08:53:38;;;;;;;;;;;22.10;49.80;;;21.09;52.70;101882.69;12141547;19;20219;-84
2023/09/14 08:57:40;;;;;;;;;;;22.20;49.80;;;21.17;53.04;101880.25;12141322;19;20754;-84
2023/09/14 09:01:44;;;;;;;;;;;22.30;49.70;;;21.34;52.80;101885.97;12139583;19;19923;-84
2023/09/14 09:05:47;;;;;;;;;;;22.40;49.20;;;21.36;52.62;101868.94;12142025;19;20204;-83
2023/09/14 09:09:49;;;;;;;;;;;22.50;49.20;;;21.51;52.81;101866.00;12138456;19;20710;-84
2023/09/14 09:13:50;;;;;;;;;;;22.70;49.40;;;21.54;52.53;101857.78;12140606;19;19915;-84
2023/09/14 09:18:04;;;;;;;;;;;22.80;49.40;;;21.76;52.67;101872.75;12137947;19;20007;-84
2023/09/14 09:22:06;;;;;;;;;;;22.90;49.40;;;21.91;52.81;101873.28;12136633;19;20747;-83
2023/09/14 09:26:09;;;;;;;;;;;23.00;48.60;;;22.00;52.43;101881.31;12138831;19;20282;-84
2023/09/14 09:30:11;;;;;;;;;;;23.10;47.90;;;22.00;52.38;101870.66;12136551;19;20294;-83
2023/09/14 09:34:13;;;;;;;;;;;23.20;48.40;;;22.14;52.15;101895.25;12138283;19;20202;-83
2023/09/14 09:38:16;;;;;;;;;;;23.20;48.10;;;22.20;52.23;101894.78;12141088;19;19930;-84
2023/09/14 09:42:19;;;;;;;;;;;23.30;48.50;;;22.17;52.22;101873.69;12135351;19;20019;-84
2023/09/14 09:46:21;;;;;;;;;;;23.30;48.60;;;22.22;52.41;101871.50;12137460;19;19934;-84
2023/09/14 09:50:23;;;;;;;;;;;23.30;48.60;;;22.36;52.06;101894.25;12134016;19;19930;-84
2023/09/14 09:54:24;;;;;;;;;;;23.50;48.70;;;22.48;52.14;101898.53;12138619;19;19918;-84
2023/09/14 09:58:36;;;;;;;;;;;23.50;48.10;;;22.49;51.98;101894.88;12137800;19;20382;-84
2023/09/14 10:02:39;;;;;;;;;;;23.60;46.90;;;22.51;51.84;101899.09;12136131;19;19926;-84
2023/09/14 10:06:41;;;;;;;;;;;23.60;47.90;;;22.56;52.14;101892.56;12137565;19;19945;-83
2023/09/14 10:10:51;;;;;;;;;;;23.60;46.40;;;22.59;51.95;101878.97;12136095;19;19955;-83
2023/09/14 10:14:56;;;;;;;;;;;23.70;47.90;;;22.71;51.57;101889.38;12138344;19;20860;-83
2023/09/14 10:18:57;;;;;;;;;;;23.70;46.40;;;22.76;51.52;101902.28;12132884;19;20966;-83
2023/09/14 10:23:00;;;;;;;;;;;23.80;44.10;;;22.72;51.38;101891.06;12135426;19;19922;-84
2023/09/14 10:27:02;;;;;;;;;;;23.80;45.90;;;22.68;51.44;101884.34;12135676;19;19923;-84
2023/09/14 10:31:04;;;;;;;;;;;23.70;46.10;;;22.72;51.51;101893.72;12132817;19;20732;-83
2023/09/14 10:35:07;;;;;;;;;;;23.80;47.30;;;22.86;51.26;101889.84;12132891;19;19955;-81
2023/09/14 10:39:09;;;;;;;;;;;23.80;47.20;;;22.87;51.16;101888.88;12132326;19;20303;-83
2023/09/14 10:43:11;;;;;;;;;;;23.90;46.50;;;22.92;51.16;101889.28;12130138;19;20183;-84
2023/09/14 10:47:15;;;;;;;;;;;23.90;46.90;;;22.90;50.99;101888.59;12131862;19;20267;-83
2023/09/14 10:51:16;;;;;;;;;;;23.90;47.20;;;22.94;51.22;101895.31;12128369;19;19923;-84
2023/09/14 10:55:23;;;;;;;;;;;23.90;47.40;;;23.06;51.41;101890.75;12132114;19;20454;-84
2023/09/14 10:59:50;;;;;;;;;;;24.00;47.70;;;23.17;50.97;101897.78;12129472;19;19922;-84
2023/09/14 11:04:08;;;;;;;;;;;24.10;47.30;;;23.14;50.84;101874.94;12130077;19;19966;-83
2023/09/14 11:08:11;;;;;;;;;;;24.10;46.60;;;23.21;50.71;101883.19;12130532;19;19942;-83
2023/09/14 11:12:20;;;;;;;;;;;24.20;46.90;;;23.23;50.72;101878.56;12132099;19;19955;-84
2023/09/14 11:16:25;;;;;;;;;;;24.20;47.40;;;23.26;50.76;101878.28;12128677;19;19927;-83
2023/09/14 11:20:27;;;;;;;;;;;24.20;46.90;;;23.30;50.71;101884.19;12125943;19;19919;-83
2023/09/14 11:24:36;;;;;;;;;;;24.20;47.10;;;23.22;50.95;101860.88;12130917;19;19918;-83
2023/09/14 11:28:37;;;;;;;;;;;24.20;47.20;;;23.33;50.49;101874.09;12132217;19;19919;-83
2023/09/14 11:32:39;;;;;;;;;;;24.30;47.20;;;22.96;50.36;101800.16;12128009;19;20274;-84
2023/09/14 11:36:43;;;;;;;;;;;24.30;46.90;;;23.42;50.54;101873.25;12130395;19;19942;-83
2023/09/14 11:40:45;;;;;;;;;;;24.30;46.90;;;23.36;50.43;101859.66;12124831;19;20572;-84
2023/09/14 11:44:49;;;;;;;;;;;24.40;47.10;;;23.48;50.65;101873.66;12129052;19;19926;-84
2023/09/14 11:48:52;;;;;;;;;;;24.40;46.90;;;23.50;50.16;101877.03;12125600;19;20006;-84
2023/09/14 11:52:55;;;;;;;;;;;24.40;45.90;;;23.44;50.04;101859.78;12128914;19;19987;-83
2023/09/14 11:57:07;;;;;;;;;;;24.40;45.70;;;23.52;50.29;101873.25;12127850;19;20674;-84
2023/09/14 12:01:09;;;;;;;;;;;24.40;46.60;;;23.61;50.32;101868.88;12127665;19;20739;-84
2023/09/14 12:05:11;;;;;;;;;;;24.40;46.40;;;23.61;49.91;101867.06;12128767;19;19922;-84
2023/09/14 12:09:12;;;;;;;;;;;24.50;45.40;;;23.62;49.75;101863.41;12129109;19;20384;-84
2023/09/14 12:13:16;;;;;;;;;;;24.60;46.40;;;23.63;50.01;101865.09;12139597;19;20764;-83
2023/09/14 12:17:22;;;;;;;;;;;24.60;46.40;;;23.69;49.67;101874.34;12140110;19;20173;-81
2023/09/14 12:21:25;;;;;;;;;;;24.60;45.80;;;23.65;49.64;101859.59;12133003;19;19947;-84
2023/09/14 12:25:26;;;;;;;;;;;24.60;46.30;;;23.67;49.89;101859.47;12130033;19;19933;-84
2023/09/14 12:29:28;;;;;;;;;;;24.60;46.00;;;23.72;49.67;101859.91;12131326;19;20332;-84
2023/09/14 12:33:30;;;;;;;;;;;24.60;46.40;;;23.75;49.68;101860.47;12134587;19;19923;-84
2023/09/14 12:37:32;;;;;;;;;;;24.70;45.70;;;23.77;49.71;101855.84;12138561;19;20177;-84
2023/09/14 12:41:34;;;;;;;;;;;24.70;46.10;;;23.81;49.56;101862.56;12134057;19;20706;-84
2023/09/14 12:45:36;;;;;;;;;;;24.70;46.30;;;23.76;49.63;101850.63;12127972;19;20338;-84
2023/09/14 12:49:37;;;;;;;;;;;24.70;46.40;;;23.76;49.23;101848.84;12137672;19;20264;-85
2023/09/14 12:53:42;;;;;;;;;;;24.70;46.40;;;23.81;49.29;101851.88;12144774;19;19943;-84
2023/09/14 12:57:47;;;;;;;;;;;24.70;46.40;;;23.84;49.46;101850.75;12143005;19;19930;-84
2023/09/14 13:01:49;;;;;;;;;;;24.70;46.40;;;23.91;49.10;101846.53;12146121;19;20636;-84
2023/09/14 13:05:54;;;;;;;;;;;24.80;45.90;;;23.93;49.29;101849.06;12137466;19;19930;-85
2023/09/14 13:10:13;;;;;;;;;;;24.80;45.40;;;23.94;49.06;101854.25;12145210;19;20461;-85
2023/09/14 13:14:21;;;;;;;;;;;24.70;45.60;;;23.92;49.20;101844.69;12143146;19;19923;-84
2023/09/14 13:18:23;;;;;;;;;;;24.80;45.70;;;23.89;48.86;101847.66;12136879;19;20428;-84
2023/09/14 13:22:25;;;;;;;;;;;24.80;44.60;;;23.86;48.86;101843.44;12135554;19;20739;-84
2023/09/14 13:26:26;;;;;;;;;;;24.80;44.50;;;23.86;48.74;101832.78;12136299;19;20498;-84
2023/09/14 13:30:28;;;;;;;;;;;24.80;44.30;;;23.95;49.07;101849.75;12132519;19;19926;-84
2023/09/14 13:34:30;;;;;;;;;;;24.80;45.20;;;23.97;48.71;101842.44;12135560;19;19923;-83
2023/09/14 13:38:32;;;;;;;;;;;24.80;45.40;;;23.97;48.95;101842.44;12136252;19;20786;-84
2023/09/14 13:42:33;;;;;;;;;;;24.80;44.80;;;23.93;48.92;101831.22;12144713;19;20363;-86
2023/09/14 13:46:38;;;;;;;;;;;24.80;45.30;;;24.00;48.53;101844.81;12141431;19;20759;-86
2023/09/14 13:50:40;;;;;;;;;;;24.80;45.40;;;23.96;48.37;101833.59;12123627;19;20737;-86
2023/09/14 13:54:42;;;;;;;;;;;24.70;45.30;;;23.68;48.73;101795.28;12128019;19;19919;-86
2023/09/14 13:58:43;;;;;;;;;;;24.70;45.20;;;23.82;48.66;101832.25;12124847;19;20260;-86
2023/09/14 14:03:04;;;;;;;;;;;24.70;45.30;;;23.77;48.41;101825.66;12127838;19;20270;-85
2023/09/14 14:07:05;;;;;;;;;;;24.60;45.20;;;23.78;48.52;101836.16;12125186;19;19923;-86
2023/09/14 14:11:07;;;;;;;;;;;24.60;45.60;;;23.77;48.35;101829.16;12129405;19;19922;-87
2023/09/14 14:15:09;;;;;;;;;;;24.50;45.30;;;23.72;48.35;101828.75;12138127;19;19931;-86
2023/09/14 14:19:12;;;;;;;;;;;24.50;45.40;;;23.73;48.28;101824.25;12134919;19;19926;-86
2023/09/14 14:23:14;;;;;;;;;;;24.50;45.30;;;23.68;47.96;101821.97;12131306;19;20006;-86
2023/09/14 14:27:15;;;;;;;;;;;24.50;45.30;;;23.76;48.03;101835.50;12132665;19;19979;-86
2023/09/14 14:31:16;;;;;;;;;;;24.50;45.40;;;23.75;48.28;101830.28;12129162;19;19914;-86
2023/09/14 14:35:18;;;;;;;;;;;24.50;45.10;;;23.76;48.02;101840.81;12132316;19;20270;-86
2023/09/14 14:39:19;;;;;;;;;;;24.50;45.10;;;23.67;48.07;101822.13;12132736;19;20020;-86
2023/09/14 14:43:21;;;;;;;;;;;24.50;45.20;;;23.83;47.81;101849.91;12133991;19;19919;-86
2023/09/14 14:47:23;;;;;;;;;;;24.50;44.90;;;23.80;47.81;101844.88;12131820;19;19918;-85
2023/09/14 14:51:26;;;;;;;;;;;24.60;45.10;;;23.85;48.12;101847.97;12130140;19;20267;-86
2023/09/14 14:55:27;;;;;;;;;;;24.60;45.00;;;23.77;47.86;101837.16;12130051;19;20324;-86
2023/09/14 14:59:29;;;;;;;;;;;24.60;44.70;;;23.88;47.96;101851.31;12132955;19;19929;-86
2023/09/14 15:03:30;;;;;;;;;;;24.60;44.90;;;23.82;47.80;101842.91;12133420;19;20392;-86
2023/09/14 15:07:32;;;;;;;;;;;24.50;44.80;;;23.79;47.91;101837.88;12131472;19;19956;-86
2023/09/14 15:11:34;;;;;;;;;;;24.70;44.90;;;23.77;47.84;101847.00;12130625;19;19923;-86
2023/09/14 15:15:36;;;;;;;;;;;24.60;44.80;;;23.82;47.72;101858.09;12130866;19;19923;-86
2023/09/14 15:19:37;;;;;;;;;;;24.60;44.90;;;23.70;47.64;101836.00;12131068;19;19933;-86
2023/09/14 15:23:38;;;;;;;;;;;24.60;44.90;;;23.77;47.43;101852.34;12136531;19;19937;-86
2023/09/14 15:27:40;;;;;;;;;;;24.50;44.70;;;23.77;47.81;101850.50;12141551;19;19922;-86
2023/09/14 15:31:41;;;;;;;;;;;24.50;44.70;;;23.79;47.55;101859.22;12132024;19;19923;-86
2023/09/14 15:35:43;;;;;;;;;;;24.50;44.70;;;23.67;47.33;101838.97;12137703;19;19930;-86
2023/09/14 15:39:45;;;;;;;;;;;24.50;44.70;;;23.77;47.25;101849.66;12136720;19;19931;-86
2023/09/14 15:43:48;;;;;;;;;;;24.50;44.80;;;23.70;47.67;101841.34;12136675;19;20271;-85
2023/09/14 15:47:50;;;;;;;;;;;24.50;44.90;;;23.72;47.45;101849.25;12153179;19;20763;-85
2023/09/14 15:51:51;;;;;;;;;;;24.50;44.80;;;23.70;47.43;101845.84;12149238;19;19930;-86
2023/09/14 15:55:53;;;;;;;;;;;24.50;44.80;;;23.65;47.06;101843.59;12150060;19;20735;-86
2023/09/14 15:59:54;;;;;;;;;;;24.40;44.70;;;23.62;47.18;101838.56;12147905;19;20348;-86
2023/09/14 16:03:56;;;;;;;;;;;24.40;44.70;;;23.65;47.25;101846.25;12146159;19;19926;-86
2023/09/14 16:08:06;;;;;;;;;;;24.40;44.70;;;23.64;47.20;101844.59;12147903;19;19927;-86
2023/09/14 16:12:08;;;;;;;;;;;24.40;44.70;;;23.64;47.00;101845.44;12147475;19;19946;-86
2023/09/14 16:16:09;;;;;;;;;;;24.40;44.60;;;23.38;47.03;101810.50;12151360;19;19922;-86
2023/09/14 16:20:11;;;;;;;;;;;24.30;44.50;;;23.52;46.90;101832.38;12144960;19;19930;-86
2023/09/14 16:24:12;;;;;;;;;;;24.30;44.60;;;23.57;46.90;101844.34;12146291;19;20016;-85
2023/09/14 16:28:36;;;;;;;;;;;;;;;;;;;;;
2023/09/14 16:33:14;;;;;;;;;;;24.30;44.80;;;23.15;47.04;101793.16;12156282;19;19918;-85
2023/09/14 16:37:21;;;;;;;;;;;24.30;44.90;;;23.47;46.89;101850.66;12173378;19;19927;-86
2023/09/14 16:41:22;;;;;;;;;;;24.20;44.90;;;23.38;46.75;101839.84;12139697;19;20310;-86
2023/09/14 16:45:24;;;;;;;;;;;24.10;45.00;;;23.29;46.66;101834.53;12150530;19;19939;-86
2023/09/14 16:49:29;;;;;;;;;;;24.10;45.10;;;23.28;47.01;101849.69;12143540;19;20168;-86
2023/09/14 16:53:30;;;;;;;;;;;24.00;45.10;;;23.15;46.92;101836.63;12145479;19;19931;-86
2023/09/14 16:57:32;;;;;;;;;;;24.00;45.10;;;23.05;46.81;101832.28;12145488;19;20737;-86
2023/09/14 17:01:33;;;;;;;;;;;23.90;45.10;;;23.06;46.89;101850.78;12143567;19;19927;-86
2023/09/14 17:05:35;;;;;;;;;;;23.80;45.10;;;22.98;47.09;101845.31;12141557;19;20323;-86
2023/09/14 17:09:37;;;;;;;;;;;23.70;45.20;;;22.83;46.62;101828.84;12146302;19;20163;-86
2023/09/14 17:13:38;;;;;;;;;;;23.60;45.10;;;22.71;47.03;101819.28;12143750;19;19922;-86
2023/09/14 17:17:40;;;;;;;;;;;23.50;45.10;;;22.73;46.84;101843.97;12145772;19;19923;-86
2023/09/14 17:21:42;;;;;;;;;;;23.40;45.10;;;22.63;47.04;101843.94;12140893;19;20664;-86
2023/09/14 17:25:47;;;;;;;;;;;23.30;45.10;;;22.40;46.77;101827.34;12143342;19;20927;-86
2023/09/14 17:29:48;;;;;;;;;;;23.20;45.10;;;22.46;46.60;101841.91;12143915;19;19923;-86
2023/09/14 17:33:50;;;;;;;;;;;23.10;45.00;;;22.36;46.87;101851.69;12137240;19;20344;-86
2023/09/14 17:37:51;;;;;;;;;;;23.00;45.00;;;22.21;47.02;101840.56;12145220;19;20767;-87
2023/09/14 17:41:53;;;;;;;;;;;22.90;45.10;;;22.08;46.94;101843.41;12143548;19;20438;-86
2023/09/14 17:45:54;;;;;;;;;;;22.80;45.10;;;22.16;46.77;101869.34;12141386;19;20183;-86
2023/09/14 17:49:56;;;;;;;;;;;22.70;45.10;;;22.07;46.86;101871.84;12142557;19;19939;-86
2023/09/14 17:53:58;;;;;;;;;;;22.70;45.10;;;21.98;46.85;101859.34;12137767;19;19927;-88
2023/09/14 17:57:59;;;;;;;;;;;22.60;45.20;;;21.86;46.65;101857.72;12134298;19;20704;-87
2023/09/14 18:02:01;;;;;;;;;;;22.50;45.20;;;21.83;46.75;101876.59;12136097;19;19923;-88
2023/09/14 18:06:03;;;;;;;;;;;22.40;45.20;;;21.72;46.71;101874.84;12125215;19;19918;-87
2023/09/14 18:10:07;;;;;;;;;;;22.30;45.10;;;21.63;46.81;101865.00;12130481;19;19922;-88
2023/09/14 18:14:09;;;;;;;;;;;22.20;45.10;;;21.49;46.64;101868.78;12128504;19;20720;-87